Terminal Aerodrome Forecast
Issued by NWS Bismarck, ND

Home | Current Version | Previous Version | Graphics & Text | Print | Product List | Glossary On
Versions: 1 2 3 4 5 6 7 8 9 10 11 12 13 14 15 16 17 18 19 20 21 22
000
FTUS43 KBIS 161600 AAA
TAFISN
TAF AMD
KISN 161620Z 1616/1712 09012KT P6SM OVC015
     FM161900 08013KT P6SM BKN030
     FM170300 09010KT 5SM BR OVC020
     FM170900 12008KT 3SM BR OVC012=

USA.gov is the U.S. government's official web portal to all federal, state and local government web resources and services.